createdAt,value
2023-04-21T00:01:08.236Z,15.37
2023-04-21T00:03:38.373Z,14.87
2023-04-21T00:06:07.292Z,15.47
2023-04-21T00:08:40.153Z,15.47
2023-04-21T00:11:09.479Z,13.93
2023-04-21T00:13:37.822Z,14.67
2023-04-21T00:16:06.300Z,13.77
2023-04-21T00:18:34.525Z,13.43
2023-04-21T00:21:02.553Z,14.80
2023-04-21T00:23:30.607Z,15.33
2023-04-21T00:25:59.640Z,15.00
2023-04-21T00:28:28.951Z,15.07
2023-04-21T00:30:58.899Z,15.03
2023-04-21T00:33:27.455Z,13.97
2023-04-21T00:35:59.099Z,14.50
2023-04-21T00:38:28.715Z,14.33
2023-04-21T00:40:56.611Z,14.70
2023-04-21T00:43:25.788Z,14.30
2023-04-21T00:45:57.141Z,14.60
2023-04-21T00:48:25.080Z,13.33
2023-04-21T00:50:53.148Z,13.23
2023-04-21T00:53:22.371Z,13.67
2023-04-21T00:55:51.788Z,12.73
2023-04-21T00:58:19.896Z,12.83
2023-04-21T01:00:47.836Z,13.30
2023-04-21T01:03:17.433Z,14.13
2023-04-21T01:05:46.656Z,12.90
2023-04-21T01:08:15.172Z,13.20
2023-04-21T01:10:43.271Z,13.40
2023-04-21T01:13:11.186Z,12.73
2023-04-21T01:15:39.069Z,12.90
2023-04-21T01:18:07.099Z,12.67
2023-04-21T01:20:36.642Z,13.13
2023-04-21T01:23:08.645Z,12.80
2023-04-21T01:25:36.572Z,12.07
2023-04-21T01:28:05.506Z,12.17
2023-04-21T01:30:33.479Z,12.83
2023-04-21T01:33:01.471Z,12.63
2023-04-21T01:35:30.949Z,12.27
2023-04-21T01:37:58.940Z,13.20
2023-04-21T01:40:28.396Z,12.70
2023-04-21T01:42:56.490Z,12.40
2023-04-21T01:45:24.576Z,13.10
2023-04-21T01:47:52.597Z,12.17
2023-04-21T01:50:20.451Z,12.87
2023-04-21T01:52:48.482Z,12.10
2023-04-21T01:55:16.662Z,13.37
2023-04-21T01:57:45.864Z,12.80
2023-04-21T02:00:14.948Z,13.20
2023-04-21T02:02:46.226Z,12.93
2023-04-21T02:05:14.636Z,12.47
2023-04-21T02:07:42.936Z,12.50
2023-04-21T02:10:11.685Z,13.17
2023-04-21T02:12:39.804Z,12.90
2023-04-21T02:15:10.118Z,11.87
2023-04-21T02:17:38.319Z,12.37
2023-04-21T02:20:07.632Z,12.70
2023-04-21T02:22:35.620Z,11.97
2023-04-21T02:25:05.275Z,13.50
2023-04-21T02:27:33.219Z,12.80
2023-04-21T02:30:01.311Z,12.37
2023-04-21T02:32:30.924Z,11.73
2023-04-21T02:34:58.934Z,12.03
2023-04-21T02:37:26.843Z,12.00
2023-04-21T02:39:54.757Z,11.93
2023-04-21T02:42:22.683Z,12.70
2023-04-21T02:44:50.858Z,13.00
2023-04-21T02:47:18.804Z,12.67
2023-04-21T02:49:47.994Z,12.90
2023-04-21T02:52:16.003Z,13.17
2023-04-21T02:54:43.932Z,13.03
2023-04-21T02:57:11.785Z,12.50
2023-04-21T02:59:41.188Z,13.07
2023-04-21T03:02:09.277Z,12.97
2023-04-21T03:04:39.510Z,13.43
2023-04-21T03:07:13.453Z,12.80
2023-04-21T03:09:41.701Z,13.03
2023-04-21T03:12:09.635Z,12.43
2023-04-21T03:14:37.578Z,12.00
2023-04-21T03:17:05.461Z,11.13
2023-04-21T03:19:33.716Z,13.00
2023-04-21T03:22:01.682Z,11.90
2023-04-21T03:24:31.480Z,10.97
2023-04-21T03:26:59.610Z,11.80
2023-04-21T03:29:28.548Z,11.40
2023-04-21T03:31:56.524Z,11.80
2023-04-21T03:34:25.412Z,11.13
2023-04-21T03:36:53.446Z,11.83
2023-04-21T03:39:22.721Z,12.50
2023-04-21T03:41:53.736Z,13.50
2023-04-21T03:44:21.668Z,13.03
2023-04-21T03:46:55.857Z,12.40
2023-04-21T03:49:24.868Z,12.93
2023-04-21T03:51:52.870Z,13.17
2023-04-21T03:54:21.172Z,13.00
2023-04-21T03:56:49.125Z,13.67
2023-04-21T03:59:18.811Z,13.33
2023-04-21T04:01:46.892Z,14.00
2023-04-21T04:04:15.442Z,13.03
2023-04-21T04:06:43.707Z,13.87
2023-04-21T04:09:11.611Z,13.60
2023-04-21T04:11:39.466Z,15.50
2023-04-21T04:14:07.485Z,14.33
2023-04-21T04:16:37.335Z,14.37
2023-04-21T04:19:05.843Z,14.07
2023-04-21T04:21:33.985Z,14.40
2023-04-21T04:24:02.351Z,13.90
2023-04-21T04:26:30.417Z,14.40
2023-04-21T04:29:00.338Z,13.37
2023-04-21T04:31:29.305Z,13.30
2023-04-21T04:33:58.807Z,14.33
2023-04-21T04:36:28.443Z,13.33
2023-04-21T04:38:56.472Z,14.60
2023-04-21T04:41:24.404Z,13.53
2023-04-21T04:43:53.473Z,13.27
2023-04-21T04:46:21.426Z,12.40
2023-04-21T04:48:49.302Z,12.63
2023-04-21T04:51:18.519Z,12.57
2023-04-21T04:53:46.503Z,13.03
2023-04-21T04:56:14.408Z,13.73
2023-04-21T04:58:42.274Z,13.57
2023-04-21T05:01:14.046Z,14.57
2023-04-21T05:03:42.643Z,14.13
2023-04-21T05:06:11.346Z,13.80
2023-04-21T05:08:41.334Z,14.03
2023-04-21T05:11:09.292Z,12.93
2023-04-21T05:13:39.755Z,14.37
2023-04-21T05:16:10.111Z,13.23
2023-04-21T05:18:38.122Z,13.67
2023-04-21T05:21:06.451Z,12.97
2023-04-21T05:23:34.352Z,13.37
2023-04-21T05:26:04.691Z,13.77
2023-04-21T05:28:33.322Z,13.73
2023-04-21T05:31:01.322Z,15.00
2023-04-21T05:33:31.799Z,14.73
2023-04-21T05:35:59.909Z,14.33
2023-04-21T05:38:28.271Z,13.50
2023-04-21T05:40:56.545Z,12.63
2023-04-21T05:43:25.985Z,12.87
2023-04-21T05:45:54.170Z,12.77
2023-04-21T05:48:22.189Z,12.83
2023-04-21T05:50:50.235Z,13.03
2023-04-21T05:53:18.152Z,13.77
2023-04-21T05:55:46.235Z,15.20
2023-04-21T05:58:14.165Z,14.87
2023-04-21T06:00:43.501Z,15.97
2023-04-21T06:03:11.593Z,16.00
2023-04-21T06:05:39.786Z,15.50
2023-04-21T06:08:08.014Z,14.87
2023-04-21T06:10:36.092Z,16.23
2023-04-21T06:13:04.061Z,13.60
2023-04-21T06:15:31.930Z,14.50
2023-04-21T06:18:01.296Z,15.97
2023-04-21T06:20:29.382Z,18.03
2023-04-21T06:22:57.375Z,17.53
2023-04-21T06:25:25.304Z,18.27
2023-04-21T06:27:53.342Z,16.30
2023-04-21T06:30:21.347Z,14.90
2023-04-21T06:32:49.484Z,15.03
2023-04-21T06:35:20.415Z,15.20
2023-04-21T06:37:48.331Z,16.10
2023-04-21T06:40:16.801Z,14.87
2023-04-21T06:42:44.795Z,16.27
2023-04-21T06:45:13.121Z,16.47
2023-04-21T06:47:41.447Z,16.03
2023-04-21T06:50:10.422Z,16.33
2023-04-21T06:52:39.732Z,16.80
2023-04-21T06:55:08.839Z,16.20
2023-04-21T06:57:37.383Z,17.47
2023-04-21T07:00:06.824Z,16.60
2023-04-21T07:02:35.218Z,16.90
2023-04-21T07:05:03.670Z,17.40
2023-04-21T07:07:31.631Z,17.60
2023-04-21T07:10:01.494Z,17.47
2023-04-21T07:12:29.384Z,17.10
2023-04-21T07:14:57.330Z,17.57
2023-04-21T07:17:25.315Z,17.63
2023-04-21T07:19:53.295Z,17.93
2023-04-21T07:22:21.481Z,17.23
2023-04-21T07:24:49.672Z,15.23
2023-04-21T07:27:20.065Z,15.40
2023-04-21T07:29:48.171Z,14.70
2023-04-21T07:32:16.200Z,14.97
2023-04-21T07:34:46.895Z,12.90
2023-04-21T07:37:14.844Z,13.07
2023-04-21T07:39:42.785Z,13.00
2023-04-21T07:42:11.204Z,13.23
2023-04-21T07:44:40.580Z,13.07
2023-04-21T07:47:08.583Z,12.97
2023-04-21T07:49:36.646Z,12.40
2023-04-21T07:52:04.548Z,12.43
2023-04-21T07:54:32.470Z,12.23
2023-04-21T07:57:01.665Z,12.67
2023-04-21T07:59:30.095Z,11.90
2023-04-21T08:01:59.390Z,11.83
2023-04-21T08:04:27.450Z,10.77
2023-04-21T08:06:55.633Z,11.13
2023-04-21T08:09:23.724Z,10.50
2023-04-21T08:11:51.686Z,11.03
2023-04-21T08:14:19.794Z,10.33
2023-04-21T08:16:48.169Z,10.47
2023-04-21T08:19:19.287Z,10.70
2023-04-21T08:21:47.540Z,9.93
2023-04-21T08:24:15.494Z,9.60
2023-04-21T08:26:43.646Z,9.10
2023-04-21T08:29:13.298Z,9.53
2023-04-21T08:31:41.306Z,9.17
2023-04-21T08:34:09.426Z,8.57
2023-04-21T08:36:38.713Z,9.43
2023-04-21T08:39:07.050Z,9.53
2023-04-21T08:41:35.506Z,8.70
2023-04-21T08:44:03.884Z,8.27
2023-04-21T08:46:33.348Z,7.80
2023-04-21T08:49:02.182Z,8.20
2023-04-21T08:51:31.206Z,7.73
2023-04-21T08:54:00.697Z,7.70
2023-04-21T08:56:28.751Z,9.23
2023-04-21T08:58:56.966Z,9.03
2023-04-21T09:01:25.211Z,8.83
2023-04-21T09:03:53.283Z,9.13
2023-04-21T09:06:21.700Z,9.40
2023-04-21T09:08:56.836Z,9.77
2023-04-21T09:11:26.109Z,9.20
2023-04-21T09:13:58.369Z,8.07
2023-04-21T09:16:30.086Z,7.27
2023-04-21T09:18:58.094Z,6.70
2023-04-21T09:21:32.083Z,7.90
2023-04-21T09:24:06.668Z,6.93
2023-04-21T09:26:38.833Z,6.67
2023-04-21T09:29:07.935Z,7.07
2023-04-21T09:31:37.233Z,7.20
2023-04-21T09:34:19.681Z,8.20
2023-04-21T09:36:48.339Z,7.93
2023-04-21T09:41:48.575Z,7.47
2023-04-21T09:44:17.766Z,8.27
2023-04-21T09:46:50.062Z,7.53
2023-04-21T09:49:19.427Z,7.07
2023-04-21T09:56:55.024Z,6.57
2023-04-21T09:59:36.114Z,7.20
2023-04-21T10:02:07.356Z,7.63
2023-04-21T10:04:38.179Z,6.60
2023-04-21T10:07:07.303Z,7.27
2023-04-21T10:09:41.265Z,7.60
2023-04-21T10:12:11.332Z,7.60
2023-04-21T10:14:39.218Z,6.37
2023-04-21T10:17:08.735Z,6.50
2023-04-21T10:19:39.916Z,6.77
2023-04-21T10:22:09.625Z,6.30
2023-04-21T10:24:42.121Z,6.77
2023-04-21T10:27:13.798Z,6.63
2023-04-21T10:29:55.490Z,8.30
2023-04-21T10:32:39.971Z,7.47
2023-04-21T10:35:10.644Z,7.13
2023-04-21T10:37:38.573Z,8.80
2023-04-21T10:40:10.172Z,7.70
2023-04-21T10:42:39.464Z,8.43
2023-04-21T10:45:12.434Z,8.47
2023-04-21T10:47:49.343Z,8.40
2023-04-21T10:50:20.679Z,8.60
2023-04-21T10:52:54.446Z,8.27
2023-04-21T10:55:22.944Z,7.87
2023-04-21T10:57:52.172Z,7.63
2023-04-21T11:00:22.865Z,7.37
2023-04-21T11:02:58.586Z,7.30
2023-04-21T11:05:36.243Z,7.27
2023-04-21T11:08:09.818Z,7.67
2023-04-21T11:10:50.129Z,7.77
2023-04-21T11:13:22.576Z,6.57
2023-04-21T11:16:04.582Z,6.27
2023-04-21T11:18:39.420Z,6.30
2023-04-21T11:21:17.800Z,6.70
2023-04-21T11:23:53.118Z,6.30
2023-04-21T11:26:32.456Z,6.67
2023-04-21T11:29:06.646Z,6.77
2023-04-21T11:31:35.273Z,7.07
2023-04-21T11:34:05.184Z,6.63
2023-04-21T11:36:33.995Z,6.40
2023-04-21T11:39:08.128Z,6.03
2023-04-21T11:41:36.245Z,5.87
2023-04-21T11:44:05.723Z,5.60
2023-04-21T11:46:34.317Z,5.77
2023-04-21T11:49:04.376Z,5.53
2023-04-21T11:51:36.207Z,5.07
2023-04-21T11:54:06.739Z,6.80
2023-04-21T11:56:37.842Z,5.60
2023-04-21T11:59:10.781Z,5.63
2023-04-21T12:01:44.752Z,6.43
2023-04-21T12:04:16.851Z,6.00
2023-04-21T12:06:45.044Z,5.80
2023-04-21T12:09:18.959Z,5.97
2023-04-21T12:11:49.712Z,6.00
2023-04-21T12:14:20.350Z,5.50
2023-04-21T12:16:50.947Z,6.40
2023-04-21T12:19:26.630Z,5.77
2023-04-21T12:21:55.596Z,5.20
2023-04-21T12:24:23.733Z,5.90
2023-04-21T12:26:51.698Z,5.10
2023-04-21T12:29:22.117Z,5.37
2023-04-21T12:31:50.046Z,6.03
2023-04-21T12:34:17.971Z,5.80
2023-04-21T12:36:45.882Z,4.67
2023-04-21T12:39:14.098Z,4.60
2023-04-21T12:41:42.079Z,4.80
2023-04-21T12:44:09.934Z,4.00
2023-04-21T12:46:39.489Z,4.13
2023-04-21T12:49:09.753Z,4.43
2023-04-21T12:51:37.801Z,4.30
2023-04-21T12:54:06.262Z,3.70
2023-04-21T12:56:34.187Z,4.23
2023-04-21T12:59:02.128Z,4.50
2023-04-21T13:01:30.037Z,3.70
2023-04-21T13:04:00.302Z,3.90
2023-04-21T13:06:29.024Z,3.77
2023-04-21T13:08:57.116Z,3.63
2023-04-21T13:11:25.489Z,3.63
2023-04-21T13:13:53.340Z,3.50
2023-04-21T13:16:21.474Z,3.40
2023-04-21T13:18:49.450Z,4.10
2023-04-21T13:21:18.690Z,3.78
2023-04-21T13:23:46.605Z,3.65
2023-04-21T13:26:14.819Z,3.42
2023-04-21T13:28:42.937Z,3.53
2023-04-21T13:31:10.960Z,4.60
2023-04-21T13:33:38.894Z,3.78
2023-04-21T13:36:07.197Z,2.97
2023-04-21T13:38:36.482Z,3.15
2023-04-21T13:41:04.548Z,3.05
2023-04-21T13:43:32.600Z,3.30
2023-04-21T13:46:00.549Z,3.08
2023-04-21T13:48:29.719Z,3.38
2023-04-21T13:50:57.818Z,3.13
2023-04-21T13:53:25.740Z,2.97
2023-04-21T13:55:57.042Z,3.45
2023-04-21T13:58:25.038Z,3.40
2023-04-21T14:00:52.930Z,3.55
2023-04-21T14:03:21.276Z,3.10
2023-04-21T14:05:49.469Z,3.22
2023-04-21T14:08:17.393Z,2.80
2023-04-21T14:10:45.455Z,2.88
2023-04-21T14:13:23.283Z,3.17
2023-04-21T14:16:02.554Z,2.80
2023-04-21T14:18:30.501Z,2.70
2023-04-21T14:20:58.482Z,2.45
2023-04-21T14:23:26.385Z,2.45
2023-04-21T14:25:55.124Z,2.90
2023-04-21T14:28:24.634Z,2.70
2023-04-21T14:30:52.483Z,2.63
2023-04-21T14:33:20.429Z,2.60
2023-04-21T14:35:48.374Z,2.45
2023-04-21T14:38:16.816Z,2.30
2023-04-21T14:40:44.784Z,2.70
2023-04-21T14:43:12.752Z,2.38
2023-04-21T14:45:42.920Z,2.40
2023-04-21T14:48:11.838Z,2.25
2023-04-21T14:50:39.794Z,2.13
2023-04-21T14:53:08.038Z,2.30
2023-04-21T14:55:35.927Z,2.13
2023-04-21T14:58:03.886Z,2.33
2023-04-21T15:00:32.152Z,2.28
2023-04-21T15:03:01.743Z,2.30
2023-04-21T15:05:30.214Z,2.42
2023-04-21T15:07:58.121Z,2.10
2023-04-21T15:10:26.468Z,1.92
2023-04-21T15:12:55.964Z,1.70
2023-04-21T15:15:24.375Z,1.90
2023-04-21T15:17:52.349Z,1.70
2023-04-21T15:20:32.497Z,1.92
2023-04-21T15:23:09.328Z,1.85
2023-04-21T15:25:37.338Z,1.65
2023-04-21T15:28:07.178Z,1.80
2023-04-21T15:30:35.308Z,1.75
2023-04-21T15:33:03.363Z,1.90
2023-04-21T15:35:32.691Z,2.60
2023-04-21T15:38:00.601Z,2.40
2023-04-21T15:40:28.541Z,2.40
2023-04-21T15:42:56.528Z,2.10
2023-04-21T15:45:24.561Z,2.10
2023-04-21T15:47:52.552Z,2.27
2023-04-21T15:50:20.637Z,2.03
2023-04-21T15:52:50.136Z,2.37
2023-04-21T15:55:18.031Z,1.83
2023-04-21T15:57:47.035Z,2.07
2023-04-21T16:00:16.317Z,2.00
2023-04-21T16:02:44.499Z,2.00
2023-04-21T16:05:12.626Z,2.05
2023-04-21T16:07:41.482Z,1.63
2023-04-21T16:10:12.378Z,2.20
2023-04-21T16:12:40.673Z,2.03
2023-04-21T16:17:44.331Z,2.20
2023-04-21T16:20:13.454Z,1.88
2023-04-21T16:22:41.602Z,1.77
2023-04-21T16:25:12.381Z,2.08
2023-04-21T16:27:40.722Z,2.00
2023-04-21T16:30:09.837Z,1.70
2023-04-21T16:32:37.982Z,2.15
2023-04-21T16:35:07.964Z,2.30
2023-04-21T16:37:38.041Z,2.25
2023-04-21T16:40:07.900Z,2.25
2023-04-21T16:42:37.476Z,2.30
2023-04-21T16:45:06.574Z,2.35
2023-04-21T16:47:41.320Z,2.33
2023-04-21T16:50:10.366Z,2.30
2023-04-21T16:52:41.301Z,2.20
2023-04-21T16:55:10.258Z,2.10
2023-04-21T16:57:39.612Z,2.40
2023-04-21T17:00:09.447Z,2.63
2023-04-21T17:02:37.664Z,2.60
2023-04-21T17:05:06.442Z,2.33
2023-04-21T17:07:35.308Z,2.53
2023-04-21T17:10:03.261Z,2.70
2023-04-21T17:12:31.194Z,2.60
2023-04-21T17:15:00.428Z,2.40
2023-04-21T17:17:28.787Z,2.40
2023-04-21T17:19:56.687Z,2.70
2023-04-21T17:22:24.594Z,2.70
2023-04-21T17:24:54.013Z,2.80
2023-04-21T17:27:22.108Z,2.50
2023-04-21T17:29:51.076Z,2.00
2023-04-21T17:32:20.678Z,1.80
2023-04-21T17:34:48.671Z,1.60
2023-04-21T17:37:17.013Z,1.50
2023-04-21T17:39:45.008Z,1.50
2023-04-21T17:42:12.880Z,1.53
2023-04-21T17:44:41.229Z,1.67
2023-04-21T17:47:09.801Z,1.70
2023-04-21T17:49:39.317Z,2.00
2023-04-21T17:52:07.417Z,2.03
2023-04-21T17:54:36.917Z,1.83
2023-04-21T17:57:06.650Z,1.73
2023-04-21T17:59:34.913Z,1.93
2023-04-21T18:02:02.794Z,1.77
2023-04-21T18:04:30.952Z,2.47
2023-04-21T18:07:00.733Z,1.70
2023-04-21T18:09:28.695Z,1.60
2023-04-21T18:11:56.977Z,1.80
2023-04-21T18:14:25.606Z,1.80
2023-04-21T18:16:53.499Z,1.47
2023-04-21T18:19:21.337Z,1.43
2023-04-21T18:21:49.454Z,1.50
2023-04-21T18:24:18.857Z,1.43
2023-04-21T18:26:47.343Z,1.50
2023-04-21T18:29:17.811Z,1.90
2023-04-21T18:31:46.019Z,2.10
2023-04-21T18:34:14.359Z,1.97
2023-04-21T18:36:43.478Z,1.33
2023-04-21T18:39:11.600Z,1.53
2023-04-21T18:41:41.847Z,1.30
2023-04-21T18:44:09.842Z,1.30
2023-04-21T18:46:37.793Z,1.90
2023-04-21T18:49:05.941Z,2.40
2023-04-21T18:51:34.288Z,2.63
2023-04-21T18:54:02.437Z,2.20
2023-04-21T18:56:32.342Z,2.67
2023-04-21T18:59:01.934Z,1.50
2023-04-21T19:01:29.904Z,1.90
2023-04-21T19:03:59.742Z,1.50
2023-04-21T19:06:29.243Z,1.80
2023-04-21T19:08:57.707Z,2.13
2023-04-21T19:11:25.752Z,2.67
2023-04-21T19:13:53.928Z,3.33
2023-04-21T19:16:23.214Z,2.23
2023-04-21T19:18:52.150Z,2.70
2023-04-21T19:21:20.169Z,1.90
2023-04-21T19:23:48.476Z,1.90
2023-04-21T19:26:17.024Z,1.90
2023-04-21T19:28:45.541Z,2.43
2023-04-21T19:31:13.575Z,2.00
2023-04-21T19:33:42.832Z,1.67
2023-04-21T19:36:10.894Z,2.83
2023-04-21T19:38:39.180Z,2.30
2023-04-21T19:41:07.060Z,2.33
2023-04-21T19:43:34.994Z,1.80
2023-04-21T19:46:03.108Z,1.43
2023-04-21T19:48:31.336Z,1.93
2023-04-21T19:51:00.843Z,1.67
2023-04-21T19:53:28.710Z,1.90
2023-04-21T19:55:56.625Z,1.90
2023-04-21T19:58:38.940Z,1.47
2023-04-21T20:01:08.470Z,1.63
2023-04-21T20:03:36.819Z,1.63
2023-04-21T20:06:06.703Z,1.73
2023-04-21T20:08:35.518Z,1.63
2023-04-21T20:11:03.583Z,1.80
2023-04-21T20:13:31.494Z,1.50
2023-04-21T20:15:59.492Z,1.37
2023-04-21T20:18:27.494Z,1.40
2023-04-21T20:20:55.465Z,1.60
2023-04-21T20:23:24.757Z,1.70
2023-04-21T20:25:52.701Z,3.00
2023-04-21T20:28:20.868Z,2.10
2023-04-21T20:30:48.798Z,2.30
2023-04-21T20:33:17.912Z,1.80
2023-04-21T20:35:46.134Z,1.80
2023-04-21T20:38:14.317Z,1.67
2023-04-21T20:40:43.548Z,3.20
2023-04-21T20:43:12.284Z,2.63
2023-04-21T20:45:41.195Z,2.03
2023-04-21T20:48:09.209Z,1.97
2023-04-21T20:50:37.187Z,1.60
2023-04-21T20:53:07.328Z,1.73
2023-04-21T20:55:35.495Z,1.60
2023-04-21T20:58:04.897Z,1.53
2023-04-21T21:00:34.353Z,1.70
2023-04-21T21:03:02.879Z,1.67
2023-04-21T21:05:33.396Z,1.90
2023-04-21T21:08:01.376Z,1.80
2023-04-21T21:10:29.321Z,2.07
2023-04-21T21:12:59.344Z,2.40
2023-04-21T21:15:30.375Z,2.33
2023-04-21T21:17:58.579Z,2.00
2023-04-21T21:20:27.047Z,2.17
2023-04-21T21:22:55.123Z,1.90
2023-04-21T21:25:23.006Z,1.80
2023-04-21T21:27:51.165Z,1.73
2023-04-21T21:30:19.133Z,2.00
2023-04-21T21:32:49.445Z,2.00
2023-04-21T21:35:17.559Z,3.20
2023-04-21T21:37:45.435Z,2.20
2023-04-21T21:40:13.856Z,2.27
2023-04-21T21:42:41.829Z,2.67
2023-04-21T21:45:11.026Z,1.83
2023-04-21T21:47:42.962Z,1.97
2023-04-21T21:50:13.572Z,2.27
2023-04-21T21:52:41.666Z,1.87
2023-04-21T21:55:10.305Z,2.17
2023-04-21T21:57:38.350Z,2.10
2023-04-21T22:00:09.061Z,2.30
2023-04-21T22:02:37.251Z,2.07
2023-04-21T22:05:06.228Z,2.40
2023-04-21T22:07:35.734Z,2.20
2023-04-21T22:10:03.956Z,2.00
2023-04-21T22:12:32.574Z,2.00
2023-04-21T22:15:00.462Z,1.70
2023-04-21T22:17:29.633Z,2.00
2023-04-21T22:19:57.761Z,2.53
2023-04-21T22:22:25.710Z,2.70
2023-04-21T22:24:54.952Z,2.97
2023-04-21T22:27:23.261Z,3.90
2023-04-21T22:29:51.380Z,3.93
2023-04-21T22:32:19.388Z,3.60
2023-04-21T22:34:47.304Z,3.40
2023-04-21T22:37:15.742Z,3.20
2023-04-21T22:39:43.615Z,3.20
2023-04-21T22:42:12.902Z,3.50
2023-04-21T22:44:41.220Z,2.80
2023-04-21T22:47:10.590Z,3.27
2023-04-21T22:49:39.047Z,2.60
2023-04-21T22:52:07.225Z,2.67
2023-04-21T22:54:35.089Z,3.10
2023-04-21T22:57:03.464Z,3.33
2023-04-21T22:59:32.726Z,2.30
2023-04-21T23:02:00.647Z,2.50
2023-04-21T23:04:28.527Z,2.07
2023-04-21T23:06:56.416Z,2.20
2023-04-21T23:09:24.425Z,2.30
2023-04-21T23:11:52.382Z,2.23
2023-04-21T23:14:20.296Z,2.30
2023-04-21T23:16:49.524Z,2.30
2023-04-21T23:19:17.499Z,2.17
2023-04-21T23:21:46.482Z,2.10
2023-04-21T23:24:14.527Z,1.87
2023-04-21T23:26:42.458Z,2.07
2023-04-21T23:29:10.410Z,2.20
2023-04-21T23:31:38.717Z,1.97
2023-04-21T23:34:07.947Z,2.00
2023-04-21T23:36:35.961Z,1.87
2023-04-21T23:39:03.930Z,2.40
2023-04-21T23:41:31.971Z,2.20
2023-04-21T23:43:59.831Z,1.90
2023-04-21T23:46:27.906Z,1.67
2023-04-21T23:48:56.012Z,1.60
2023-04-21T23:51:25.250Z,1.80
2023-04-21T23:53:53.439Z,2.10
2023-04-21T23:56:21.657Z,2.20
2023-04-21T23:58:49.601Z,1.70
